createdAt,value
2018-01-14T00:00:11.631Z,77.36
2018-01-14T00:02:39.161Z,77.53
2018-01-14T00:05:06.736Z,76.88
2018-01-14T00:07:34.322Z,77.00
2018-01-14T00:10:01.918Z,76.86
2018-01-14T00:12:29.457Z,77.06
2018-01-14T00:14:56.981Z,77.89
2018-01-14T00:17:24.562Z,77.39
2018-01-14T00:19:52.149Z,77.85
2018-01-14T00:22:19.743Z,78.36
2018-01-14T00:24:47.336Z,78.69
2018-01-14T00:27:14.922Z,78.19
2018-01-14T00:29:42.489Z,78.44
2018-01-14T00:32:10.079Z,79.01
2018-01-14T00:34:37.668Z,78.92
2018-01-14T00:37:05.206Z,78.68
2018-01-14T00:39:32.750Z,78.63
2018-01-14T00:42:00.403Z,77.97
2018-01-14T00:44:27.991Z,78.33
2018-01-14T00:46:55.542Z,78.67
2018-01-14T00:49:23.134Z,77.99
2018-01-14T00:51:50.665Z,78.41
2018-01-14T00:54:18.240Z,78.48
2018-01-14T00:56:45.830Z,78.55
2018-01-14T00:59:13.422Z,78.17
2018-01-14T01:01:41.024Z,78.34
2018-01-14T01:04:08.618Z,78.72
2018-01-14T01:06:36.202Z,79.02
2018-01-14T01:09:03.913Z,78.44
2018-01-14T01:11:31.502Z,78.39
2018-01-14T01:13:59.102Z,78.21
2018-01-14T01:16:26.634Z,77.67
2018-01-14T01:18:54.290Z,77.38
2018-01-14T01:21:21.812Z,77.37
2018-01-14T01:23:49.406Z,76.78
2018-01-14T01:26:16.977Z,77.08
2018-01-14T01:28:44.506Z,78.05
2018-01-14T01:31:12.106Z,78.10
2018-01-14T01:33:39.638Z,77.48
2018-01-14T01:36:07.166Z,77.98
2018-01-14T01:38:34.702Z,77.74
2018-01-14T01:41:02.238Z,77.47
2018-01-14T01:43:29.817Z,77.76
2018-01-14T01:45:57.346Z,77.58
2018-01-14T01:48:24.870Z,76.95
2018-01-14T01:50:52.468Z,77.08
2018-01-14T01:53:19.993Z,77.06
2018-01-14T01:55:47.561Z,77.84
2018-01-14T01:58:15.091Z,77.47
2018-01-14T02:00:42.614Z,76.96
2018-01-14T02:03:10.157Z,77.01
2018-01-14T02:05:37.687Z,77.58
2018-01-14T02:08:05.269Z,76.09
2018-01-14T02:10:32.802Z,76.88
2018-01-14T02:13:00.403Z,77.00
2018-01-14T02:15:28.010Z,77.04
2018-01-14T02:17:55.542Z,77.05
2018-01-14T02:20:23.182Z,76.45
2018-01-14T02:22:50.784Z,75.93
2018-01-14T02:25:18.375Z,76.31
2018-01-14T02:27:45.914Z,76.62
2018-01-14T02:30:13.450Z,76.39
2018-01-14T02:32:41.033Z,76.53
2018-01-14T02:35:08.576Z,78.03
2018-01-14T02:37:36.121Z,77.30
2018-01-14T02:40:03.659Z,76.22
2018-01-14T02:42:31.206Z,76.57
2018-01-14T02:44:58.814Z,76.36
2018-01-14T02:47:26.410Z,76.01
2018-01-14T02:49:53.946Z,76.18
2018-01-14T02:52:21.490Z,76.52
2018-01-14T02:54:49.023Z,76.99
2018-01-14T02:57:16.666Z,76.67
2018-01-14T02:59:44.278Z,76.54
2018-01-14T03:02:11.810Z,76.52
2018-01-14T03:04:39.389Z,76.88
2018-01-14T03:07:06.906Z,76.43
2018-01-14T03:09:34.542Z,76.75
2018-01-14T03:12:02.070Z,76.47
2018-01-14T03:14:29.597Z,75.58
2018-01-14T03:16:57.193Z,75.60
2018-01-14T03:19:24.769Z,75.54
2018-01-14T03:21:52.350Z,76.09
2018-01-14T03:24:19.934Z,76.32
2018-01-14T03:26:47.470Z,76.34
2018-01-14T03:29:15.070Z,76.21
2018-01-14T03:31:42.626Z,76.18
2018-01-14T03:34:10.233Z,76.72
2018-01-14T03:36:37.765Z,76.21
2018-01-14T03:39:05.333Z,76.66
2018-01-14T03:41:32.925Z,75.93
2018-01-14T03:44:00.465Z,76.13
2018-01-14T03:46:28.046Z,75.56
2018-01-14T03:48:55.574Z,75.45
2018-01-14T03:51:23.160Z,75.25
2018-01-14T03:53:50.766Z,75.25
2018-01-14T03:56:18.302Z,75.90
2018-01-14T03:58:45.938Z,75.92
2018-01-14T04:01:13.497Z,75.12
2018-01-14T04:03:41.033Z,76.10
2018-01-14T04:06:08.574Z,75.33
2018-01-14T04:08:36.114Z,75.16
2018-01-14T04:11:03.694Z,75.52
2018-01-14T04:13:31.227Z,75.58
2018-01-14T04:15:58.815Z,75.80
2018-01-14T04:18:26.354Z,76.06
2018-01-14T04:20:53.889Z,76.20
2018-01-14T04:23:21.529Z,76.21
2018-01-14T04:25:49.113Z,76.51
2018-01-14T04:28:16.704Z,76.01
2018-01-14T04:30:44.240Z,76.71
2018-01-14T04:33:11.774Z,76.00
2018-01-14T04:35:39.375Z,75.87
2018-01-14T04:38:06.917Z,76.46
2018-01-14T04:40:34.449Z,75.66
2018-01-14T04:43:01.987Z,75.94
2018-01-14T04:45:29.526Z,76.13
2018-01-14T04:47:57.062Z,76.92
2018-01-14T04:50:24.642Z,77.11
2018-01-14T04:52:52.186Z,76.99
2018-01-14T04:55:19.731Z,76.00
2018-01-14T04:57:47.277Z,76.18
2018-01-14T05:00:14.818Z,76.30
2018-01-14T05:02:42.361Z,76.00
2018-01-14T05:05:09.902Z,77.01
2018-01-14T05:07:37.437Z,76.96
2018-01-14T05:10:04.975Z,77.42
2018-01-14T05:12:32.521Z,76.78
2018-01-14T05:15:00.119Z,77.20
2018-01-14T05:17:27.654Z,77.20
2018-01-14T05:19:55.254Z,77.23
2018-01-14T05:22:22.898Z,76.93
2018-01-14T05:24:50.425Z,76.65
2018-01-14T05:27:17.968Z,76.50
2018-01-14T05:29:45.550Z,76.75
2018-01-14T05:32:13.078Z,76.77
2018-01-14T05:34:40.615Z,76.79
2018-01-14T05:37:08.155Z,76.70
2018-01-14T05:39:35.695Z,76.59
2018-01-14T05:42:03.250Z,75.69
2018-01-14T05:44:30.854Z,76.57
2018-01-14T05:46:58.394Z,76.87
2018-01-14T05:49:25.947Z,76.88
2018-01-14T05:51:53.485Z,76.73
2018-01-14T05:54:21.023Z,77.19
2018-01-14T05:56:48.564Z,77.45
2018-01-14T05:59:16.098Z,77.75
2018-01-14T06:01:43.630Z,77.57
2018-01-14T06:04:11.178Z,77.31
2018-01-14T06:06:38.759Z,77.32
2018-01-14T06:09:06.297Z,77.55
2018-01-14T06:11:33.908Z,77.84
2018-01-14T06:14:01.443Z,78.21
2018-01-14T06:16:29.041Z,77.76
2018-01-14T06:18:56.642Z,77.19
2018-01-14T06:21:24.178Z,77.23
2018-01-14T06:23:51.781Z,77.53
2018-01-14T06:26:19.322Z,75.70
2018-01-14T06:28:46.855Z,75.43
2018-01-14T06:31:14.386Z,75.44
2018-01-14T06:33:41.989Z,73.55
2018-01-14T06:36:09.579Z,74.28
2018-01-14T06:38:37.106Z,73.64
2018-01-14T06:41:04.642Z,74.47
2018-01-14T06:43:32.170Z,73.58
2018-01-14T06:45:59.706Z,74.27
2018-01-14T06:48:27.313Z,73.80
2018-01-14T06:50:54.902Z,73.54
2018-01-14T06:53:22.442Z,73.53
2018-01-14T06:55:49.990Z,73.20
2018-01-14T06:58:17.526Z,73.59
2018-01-14T07:00:45.062Z,73.48
2018-01-14T07:03:12.614Z,73.65
2018-01-14T07:05:40.149Z,72.24
2018-01-14T07:08:07.741Z,73.40
2018-01-14T07:10:35.334Z,72.90
2018-01-14T07:13:02.878Z,72.65
2018-01-14T07:15:30.410Z,72.68
2018-01-14T07:17:58.011Z,72.60
2018-01-14T07:20:25.546Z,72.43
2018-01-14T07:22:53.074Z,72.12
2018-01-14T07:25:20.609Z,72.71
2018-01-14T07:27:48.137Z,72.86
2018-01-14T07:30:15.730Z,72.33
2018-01-14T07:32:43.274Z,71.81
2018-01-14T07:35:10.806Z,71.36
2018-01-14T07:37:38.403Z,71.76
2018-01-14T07:40:05.942Z,71.84
2018-01-14T07:42:33.478Z,71.54
2018-01-14T07:45:01.017Z,71.62
2018-01-14T07:47:28.557Z,71.42
2018-01-14T07:49:56.154Z,71.90
2018-01-14T07:52:23.742Z,71.65
2018-01-14T07:54:51.278Z,71.26
2018-01-14T07:57:18.866Z,71.08
2018-01-14T07:59:46.398Z,70.38
2018-01-14T08:02:13.929Z,69.63
2018-01-14T08:04:41.514Z,69.86
2018-01-14T08:07:09.098Z,68.62
2018-01-14T08:09:36.640Z,69.42
2018-01-14T08:12:04.222Z,67.96
2018-01-14T08:14:31.747Z,67.59
2018-01-14T08:16:59.383Z,66.83
2018-01-14T08:19:26.974Z,66.83
2018-01-14T08:21:54.558Z,66.33
2018-01-14T08:24:22.192Z,67.52
2018-01-14T08:26:49.782Z,67.60
2018-01-14T08:29:17.311Z,66.40
2018-01-14T08:31:44.891Z,67.19
2018-01-14T08:34:12.482Z,67.37
2018-01-14T08:36:40.010Z,66.35
2018-01-14T08:39:07.581Z,66.77
2018-01-14T08:41:35.113Z,66.77
2018-01-14T08:44:02.698Z,67.09
2018-01-14T08:46:30.339Z,67.58
2018-01-14T08:48:57.866Z,66.22
2018-01-14T08:51:25.398Z,66.97
2018-01-14T08:53:53.042Z,66.99
2018-01-14T08:56:20.626Z,67.62
2018-01-14T08:58:48.206Z,66.57
2018-01-14T09:01:15.832Z,66.70
2018-01-14T09:03:43.366Z,65.92
2018-01-14T09:06:10.897Z,66.36
2018-01-14T09:08:38.478Z,66.89
2018-01-14T09:11:06.006Z,66.46
2018-01-14T09:13:33.603Z,65.37
2018-01-14T09:16:01.242Z,65.96
2018-01-14T09:18:28.822Z,65.29
2018-01-14T09:20:56.362Z,66.29
2018-01-14T09:23:23.942Z,65.37
2018-01-14T09:25:51.539Z,64.96
2018-01-14T09:28:19.069Z,64.32
2018-01-14T09:30:58.589Z,63.83
2018-01-14T09:33:26.117Z,63.92
2018-01-14T09:35:53.646Z,64.97
2018-01-14T09:38:21.181Z,62.73
2018-01-14T09:40:48.714Z,63.96
2018-01-14T09:43:16.338Z,62.80
2018-01-14T09:45:43.912Z,62.90
2018-01-14T09:48:11.442Z,64.25
2018-01-14T09:50:39.031Z,63.28
2018-01-14T09:53:06.557Z,62.36
2018-01-14T09:55:34.191Z,62.38
2018-01-14T09:58:01.734Z,62.52
2018-01-14T10:00:29.263Z,62.01
2018-01-14T10:02:56.809Z,62.91
2018-01-14T10:05:24.342Z,64.16
2018-01-14T10:07:51.917Z,63.78
2018-01-14T10:10:19.454Z,62.17
2018-01-14T10:12:47.054Z,61.72
2018-01-14T10:15:14.591Z,62.46
2018-01-14T10:17:42.189Z,61.30
2018-01-14T10:20:09.761Z,60.89
2018-01-14T10:22:37.294Z,61.56
2018-01-14T10:25:04.834Z,60.09
2018-01-14T10:27:32.371Z,59.64
2018-01-14T10:29:59.906Z,60.35
2018-01-14T10:32:27.486Z,58.28
2018-01-14T10:34:55.034Z,58.63
2018-01-14T10:37:22.567Z,60.67
2018-01-14T10:39:50.166Z,59.27
2018-01-14T10:42:17.689Z,60.28
2018-01-14T10:44:45.257Z,60.89
2018-01-14T10:47:12.787Z,61.81
2018-01-14T10:49:40.321Z,61.72
2018-01-14T10:52:07.862Z,60.54
2018-01-14T10:54:35.446Z,60.72
2018-01-14T10:57:03.877Z,62.27
2018-01-14T10:59:31.466Z,61.80
2018-01-14T11:01:59.002Z,61.57
2018-01-14T11:04:26.542Z,62.54
2018-01-14T11:06:54.070Z,62.19
2018-01-14T11:09:21.669Z,61.29
2018-01-14T11:11:49.259Z,61.91
2018-01-14T11:14:16.863Z,60.85
2018-01-14T11:16:44.403Z,61.25
2018-01-14T11:19:11.946Z,62.27
2018-01-14T11:21:39.513Z,62.86
2018-01-14T11:24:07.038Z,62.48
2018-01-14T11:26:34.562Z,63.03
2018-01-14T11:29:02.094Z,62.72
2018-01-14T11:31:29.625Z,61.60
2018-01-14T11:33:57.157Z,62.57
2018-01-14T11:36:24.739Z,61.73
2018-01-14T11:38:52.318Z,62.85
2018-01-14T11:41:19.846Z,63.75
2018-01-14T11:43:47.437Z,63.33
2018-01-14T11:46:14.979Z,64.81
2018-01-14T11:48:42.505Z,64.60
2018-01-14T11:51:10.076Z,63.58
2018-01-14T11:53:37.609Z,64.12
2018-01-14T11:56:05.136Z,62.97
2018-01-14T11:58:32.665Z,63.50
2018-01-14T12:01:00.199Z,61.81
2018-01-14T12:03:27.774Z,63.33
2018-01-14T12:05:55.306Z,63.13
2018-01-14T12:08:22.830Z,64.14
2018-01-14T12:10:50.361Z,63.60
2018-01-14T12:13:17.885Z,64.56
2018-01-14T12:15:45.465Z,65.90
2018-01-14T12:18:13.000Z,65.47
2018-01-14T12:20:40.591Z,65.45
2018-01-14T12:23:08.326Z,65.16
2018-01-14T12:25:35.855Z,65.35
2018-01-14T12:28:03.430Z,64.79
2018-01-14T12:30:31.015Z,64.32
2018-01-14T12:33:08.202Z,65.39
2018-01-14T12:35:35.733Z,65.78
2018-01-14T12:38:03.329Z,65.38
2018-01-14T12:40:30.870Z,65.37
2018-01-14T12:42:58.454Z,65.92
2018-01-14T12:45:26.030Z,65.75
2018-01-14T12:47:53.654Z,65.36
2018-01-14T12:50:21.238Z,66.15
2018-01-14T12:52:48.777Z,67.06
2018-01-14T12:55:16.301Z,65.82
2018-01-14T12:57:43.942Z,67.64
2018-01-14T13:00:11.474Z,66.22
2018-01-14T13:02:39.021Z,66.33
2018-01-14T13:05:06.614Z,65.68
2018-01-14T13:07:34.141Z,65.85
2018-01-14T13:10:01.714Z,66.11
2018-01-14T13:12:29.303Z,66.09
2018-01-14T13:14:56.830Z,66.49
2018-01-14T13:17:24.368Z,66.61
2018-01-14T13:19:51.894Z,67.75
2018-01-14T13:22:19.535Z,66.90
2018-01-14T13:24:47.118Z,66.58
2018-01-14T13:27:14.650Z,65.88
2018-01-14T13:29:42.186Z,66.42
2018-01-14T13:32:09.827Z,66.66
2018-01-14T13:34:37.486Z,66.37
2018-01-14T13:37:05.018Z,67.20
2018-01-14T13:39:32.606Z,66.45
2018-01-14T13:42:00.194Z,66.84
2018-01-14T13:44:27.783Z,66.69
2018-01-14T13:46:55.354Z,67.86
2018-01-14T13:49:22.951Z,66.70
2018-01-14T13:51:50.479Z,66.85
2018-01-14T13:54:18.030Z,67.37
2018-01-14T13:56:45.569Z,66.88
2018-01-14T13:59:13.214Z,67.54
2018-01-14T14:01:40.746Z,68.38
2018-01-14T14:04:08.282Z,68.00
2018-01-14T14:06:35.886Z,69.17
2018-01-14T14:09:03.470Z,67.89
2018-01-14T14:11:31.045Z,69.08
2018-01-14T14:13:58.638Z,68.09
2018-01-14T14:16:26.162Z,68.93
2018-01-14T14:18:53.701Z,68.29
2018-01-14T14:21:21.346Z,68.87
2018-01-14T14:23:48.917Z,70.04
2018-01-14T14:26:16.448Z,69.99
2018-01-14T14:28:43.982Z,70.39
2018-01-14T14:31:11.526Z,70.22
2018-01-14T14:33:39.061Z,70.85
2018-01-14T14:36:06.645Z,70.25
2018-01-14T14:38:34.177Z,70.64
2018-01-14T14:41:01.710Z,70.27
2018-01-14T14:43:29.314Z,70.87
2018-01-14T14:45:56.854Z,71.28
2018-01-14T14:48:24.437Z,71.21
2018-01-14T14:50:52.071Z,71.55
2018-01-14T14:53:19.602Z,71.51
2018-01-14T14:55:47.147Z,71.79
2018-01-14T14:58:14.809Z,72.23
2018-01-14T15:00:42.374Z,72.40
2018-01-14T15:03:09.910Z,71.97
2018-01-14T15:05:37.524Z,71.98
2018-01-14T15:08:05.135Z,72.62
2018-01-14T15:10:32.681Z,72.18
2018-01-14T15:13:00.263Z,72.39
2018-01-14T15:15:27.797Z,73.06
2018-01-14T15:17:55.333Z,74.10
2018-01-14T15:20:22.914Z,73.24
2018-01-14T15:22:50.510Z,73.68
2018-01-14T15:25:18.086Z,72.81
2018-01-14T15:27:45.686Z,72.95
2018-01-14T15:30:13.278Z,73.03
2018-01-14T15:32:40.881Z,73.08
2018-01-14T15:35:08.414Z,73.17
2018-01-14T15:37:36.058Z,73.47
2018-01-14T15:40:03.589Z,73.17
2018-01-14T15:42:31.217Z,73.16
2018-01-14T15:44:58.866Z,73.25
2018-01-14T15:47:26.410Z,73.35
2018-01-14T15:49:53.991Z,73.90
2018-01-14T15:52:21.530Z,73.42
2018-01-14T15:54:49.069Z,73.95
2018-01-14T15:57:16.622Z,73.77
2018-01-14T15:59:44.240Z,74.06
2018-01-14T16:02:11.826Z,74.43
2018-01-14T16:04:39.454Z,74.31
2018-01-14T16:07:06.996Z,74.61
2018-01-14T16:09:34.541Z,74.60
2018-01-14T16:12:02.140Z,74.61
2018-01-14T16:14:29.718Z,74.72
2018-01-14T16:16:57.253Z,75.07
2018-01-14T16:19:24.850Z,75.07
2018-01-14T16:21:52.454Z,75.43
2018-01-14T16:24:19.989Z,74.82
2018-01-14T16:26:47.642Z,75.28
2018-01-14T16:29:15.242Z,74.90
2018-01-14T16:31:42.841Z,74.56
2018-01-14T16:34:10.389Z,75.04
2018-01-14T16:36:37.921Z,74.97
2018-01-14T16:39:05.542Z,74.92
2018-01-14T16:41:33.184Z,74.88
2018-01-14T16:44:00.783Z,75.43
2018-01-14T16:46:28.338Z,75.67
2018-01-14T16:48:55.943Z,75.64
2018-01-14T16:51:23.529Z,75.53
2018-01-14T16:53:51.126Z,75.73
2018-01-14T16:56:18.669Z,76.02
2018-01-14T16:58:46.213Z,76.07
2018-01-14T17:01:13.812Z,76.29
2018-01-14T17:03:41.390Z,76.05
2018-01-14T17:06:08.955Z,76.42
2018-01-14T17:08:36.495Z,76.53
2018-01-14T17:11:04.136Z,76.17
2018-01-14T17:13:31.736Z,76.72
2018-01-14T17:15:59.340Z,76.73
2018-01-14T17:18:26.883Z,77.08
2018-01-14T17:20:54.417Z,76.79
2018-01-14T17:23:22.078Z,76.88
2018-01-14T17:25:49.674Z,77.44
2018-01-14T17:28:17.254Z,77.38
2018-01-14T17:30:44.790Z,76.95
2018-01-14T17:33:12.383Z,77.24
2018-01-14T17:35:39.926Z,77.14
2018-01-14T17:38:07.478Z,76.80
2018-01-14T17:40:35.063Z,77.10
2018-01-14T17:43:02.666Z,77.14
2018-01-14T17:45:30.320Z,77.21
2018-01-14T17:47:57.942Z,77.33
2018-01-14T17:50:25.520Z,76.86
2018-01-14T17:52:53.205Z,76.54
2018-01-14T17:55:20.741Z,76.19
2018-01-14T17:57:48.319Z,76.37
2018-01-14T18:00:15.913Z,76.37
2018-01-14T18:02:43.449Z,76.47
2018-01-14T18:05:11.090Z,76.68
2018-01-14T18:07:38.627Z,77.15
2018-01-14T18:10:06.171Z,76.16
2018-01-14T18:12:33.721Z,76.82
2018-01-14T18:15:01.314Z,76.87
2018-01-14T18:17:28.916Z,76.51
2018-01-14T18:19:56.446Z,76.44
2018-01-14T18:22:24.049Z,76.29
2018-01-14T18:24:51.651Z,76.27
2018-01-14T18:27:19.186Z,76.40
2018-01-14T18:29:46.781Z,75.84
2018-01-14T18:32:14.316Z,75.64
2018-01-14T18:34:41.910Z,75.44
2018-01-14T18:37:09.460Z,75.92
2018-01-14T18:39:37.079Z,75.48
2018-01-14T18:42:04.658Z,75.83
2018-01-14T18:44:32.203Z,76.21
2018-01-14T18:46:59.827Z,75.89
2018-01-14T18:49:27.375Z,76.16
2018-01-14T18:51:54.911Z,75.87
2018-01-14T18:54:22.527Z,76.33
2018-01-14T18:56:50.067Z,75.97
2018-01-14T18:59:17.617Z,75.56
2018-01-14T19:01:45.165Z,75.43
2018-01-14T19:04:12.799Z,75.36
2018-01-14T19:06:40.390Z,76.36
2018-01-14T19:09:07.935Z,75.83
2018-01-14T19:11:35.474Z,75.85
2018-01-14T19:14:03.024Z,76.05
2018-01-14T19:16:30.589Z,75.75
2018-01-14T19:18:58.176Z,75.93
2018-01-14T19:21:25.715Z,75.95
2018-01-14T19:23:53.311Z,76.13
2018-01-14T19:26:20.856Z,76.03
2018-01-14T19:28:48.389Z,75.84
2018-01-14T19:31:15.981Z,75.65
2018-01-14T19:33:43.581Z,75.26
2018-01-14T19:36:11.178Z,75.14
2018-01-14T19:38:38.795Z,75.73
2018-01-14T19:41:06.399Z,75.28
2018-01-14T19:43:33.990Z,75.70
2018-01-14T19:46:01.526Z,75.62
2018-01-14T19:48:29.123Z,75.65
2018-01-14T19:50:56.657Z,75.49
2018-01-14T19:53:24.190Z,75.73
2018-01-14T19:55:51.831Z,75.60
2018-01-14T19:58:19.369Z,75.58
2018-01-14T20:00:46.904Z,75.67
2018-01-14T20:03:14.454Z,75.49
2018-01-14T20:05:41.986Z,75.76
2018-01-14T20:08:09.592Z,75.82
2018-01-14T20:10:37.131Z,76.12
2018-01-14T20:13:04.670Z,76.63
2018-01-14T20:15:32.224Z,76.41
2018-01-14T20:18:00.038Z,75.94
2018-01-14T20:20:27.627Z,76.35
2018-01-14T20:22:55.170Z,76.42
2018-01-14T20:25:22.709Z,76.50
2018-01-14T20:27:50.259Z,76.34
2018-01-14T20:30:17.802Z,76.00
2018-01-14T20:32:45.382Z,76.26
2018-01-14T20:35:12.922Z,76.10
2018-01-14T20:37:40.461Z,76.08
2018-01-14T20:40:08.026Z,76.31
2018-01-14T20:42:35.622Z,75.86
2018-01-14T20:45:03.210Z,76.40
2018-01-14T20:47:30.744Z,76.18
2018-01-14T20:49:58.277Z,76.48
2018-01-14T20:52:25.814Z,76.02
2018-01-14T20:54:53.350Z,76.18
2018-01-14T20:57:20.941Z,76.27
2018-01-14T20:59:48.495Z,76.60
2018-01-14T21:02:16.038Z,76.94
2018-01-14T21:04:43.586Z,76.80
2018-01-14T21:07:11.186Z,76.43
2018-01-14T21:09:38.818Z,76.85
2018-01-14T21:12:06.350Z,76.91
2018-01-14T21:14:33.886Z,77.04
2018-01-14T21:17:01.429Z,76.99
2018-01-14T21:19:28.980Z,76.69
2018-01-14T21:21:56.698Z,76.61
2018-01-14T21:24:24.334Z,77.02
2018-01-14T21:26:51.917Z,76.57
2018-01-14T21:29:19.473Z,76.78
2018-01-14T21:31:47.071Z,77.36
2018-01-14T21:34:14.645Z,77.22
2018-01-14T21:36:42.185Z,77.12
2018-01-14T21:39:09.778Z,76.62
2018-01-14T21:41:37.379Z,76.64
2018-01-14T21:44:04.910Z,76.19
2018-01-14T21:46:32.494Z,76.63
2018-01-14T21:49:00.084Z,76.67
2018-01-14T21:51:27.698Z,76.67
2018-01-14T21:53:55.330Z,76.63
2018-01-14T21:56:22.865Z,76.18
2018-01-14T21:58:50.517Z,76.26
2018-01-14T22:01:18.054Z,76.21
2018-01-14T22:03:45.582Z,76.24
2018-01-14T22:06:13.176Z,76.32
2018-01-14T22:08:40.780Z,76.37
2018-01-14T22:11:08.418Z,76.58
2018-01-14T22:13:36.046Z,75.94
2018-01-14T22:16:03.581Z,75.51
2018-01-14T22:18:31.179Z,75.72
2018-01-14T22:20:58.718Z,75.95
2018-01-14T22:23:26.358Z,76.34
2018-01-14T22:25:53.960Z,76.05
2018-01-14T22:28:21.493Z,76.39
2018-01-14T22:30:49.042Z,77.18
2018-01-14T22:33:16.582Z,77.85
2018-01-14T22:35:44.162Z,77.21
2018-01-14T22:38:11.694Z,76.82
2018-01-14T22:40:39.290Z,77.12
2018-01-14T22:43:06.933Z,77.26
2018-01-14T22:45:34.530Z,77.17
2018-01-14T22:48:02.106Z,77.71
2018-01-14T22:50:29.641Z,77.49
2018-01-14T22:52:57.177Z,77.01
2018-01-14T22:55:24.716Z,77.17
2018-01-14T22:57:52.311Z,77.08
2018-01-14T23:00:19.962Z,76.81
2018-01-14T23:02:47.496Z,77.17
2018-01-14T23:05:15.035Z,76.44
2018-01-14T23:07:42.574Z,76.97
2018-01-14T23:10:10.338Z,76.37
2018-01-14T23:12:37.990Z,76.87
2018-01-14T23:15:08.498Z,76.72
2018-01-14T23:17:36.030Z,77.23
2018-01-14T23:20:03.569Z,77.39
2018-01-14T23:22:31.099Z,77.73
2018-01-14T23:24:58.684Z,78.10
2018-01-14T23:27:26.221Z,78.54
2018-01-14T23:29:53.753Z,78.53
2018-01-14T23:32:21.305Z,78.95
2018-01-14T23:34:48.845Z,79.27
2018-01-14T23:37:16.490Z,80.09
2018-01-14T23:39:44.121Z,79.85
2018-01-14T23:42:11.649Z,79.58
2018-01-14T23:44:39.185Z,79.93
2018-01-14T23:47:06.730Z,79.78
2018-01-14T23:49:34.309Z,80.52
2018-01-14T23:52:01.845Z,80.70
2018-01-14T23:54:29.438Z,80.48
2018-01-14T23:56:57.055Z,81.03
2018-01-14T23:59:24.596Z,81.21
